SCOT35 YBOK-YBOK
Flight info
| Callsign | SCOT35 |
|---|---|
| Flight time | 0h 2m |
| Altitude | 4500 |
| Route | OK DCT ACLD DCT OK |
| Aircraft | EC35/L-SDFGRY/C |
Departure
| Time | 2026-04-15 06:24 |
|---|---|
| Airport | Oakey Army Aviation Centre (YBOK) |
Arrival
| Time | 2026-04-15 06:26 |
|---|---|
| Airport | Oakey Army Aviation Centre (YBOK) |
| Time | Latitude | Longitude | Altitude | Speed | Heading |
|---|---|---|---|---|---|
| 2026-04-15 06:15 | -27.41367 | 151.73479 | 1345 ft | 0 kts | 146° |
| 2026-04-15 06:22 | -27.41369 | 151.73478 | 1352 ft | 2 kts | 28° |
| 2026-04-15 06:22 | -27.41344 | 151.73442 | 1352 ft | 10 kts | 337° |
| 2026-04-15 06:22 | -27.41266 | 151.73452 | 1354 ft | 7 kts | 15° |
| 2026-04-15 06:22 | -27.41220 | 151.73463 | 1363 ft | 10 kts | 3° |
| 2026-04-15 06:23 | -27.41131 | 151.73481 | 1369 ft | 16 kts | 15° |
| 2026-04-15 06:23 | -27.41081 | 151.73505 | 1363 ft | 6 kts | 348° |
| 2026-04-15 06:23 | -27.41037 | 151.73351 | 1434 ft | 54 kts | 281° |
| 2026-04-15 06:23 | -27.40954 | 151.72839 | 1549 ft | 77 kts | 275° |
| 2026-04-15 06:24 | -27.40864 | 151.72230 | 1780 ft | 74 kts | 275° |
| 2026-04-15 06:24 | -27.40877 | 151.71690 | 2033 ft | 71 kts | 232° |
| 2026-04-15 06:24 | -27.41355 | 151.71548 | 2145 ft | 85 kts | 156° |
| 2026-04-15 06:24 | -27.41785 | 151.72086 | 2141 ft | 102 kts | 106° |
| 2026-04-15 06:25 | -27.41949 | 151.72928 | 2074 ft | 114 kts | 96° |
| 2026-04-15 06:25 | -27.42071 | 151.73788 | 2161 ft | 108 kts | 94° |
| 2026-04-15 06:25 | -27.42117 | 151.74597 | 2254 ft | 97 kts | 59° |
| 2026-04-15 06:25 | -27.41613 | 151.74831 | 2162 ft | 93 kts | 333° |
| 2026-04-15 06:26 | -27.41164 | 151.74269 | 1753 ft | 104 kts | 278° |
| 2026-04-15 06:26 | -27.41073 | 151.73568 | 1403 ft | 62 kts | 290° |
| 2026-04-15 06:26 | -27.41029 | 151.73285 | 1363 ft | 17 kts | 289° |
| 2026-04-15 06:26 | -27.40986 | 151.73026 | 1415 ft | 61 kts | 287° |
| 2026-04-15 06:27 | -27.40891 | 151.72467 | 1528 ft | 81 kts | 279° |
| 2026-04-15 06:27 | -27.40806 | 151.71826 | 1710 ft | 82 kts | 259° |
| 2026-04-15 06:27 | -27.41202 | 151.71488 | 1950 ft | 79 kts | 180° |
| 2026-04-15 06:27 | -27.41688 | 151.71789 | 2063 ft | 90 kts | 122° |
| 2026-04-15 06:28 | -27.41838 | 151.72247 | 2068 ft | 101 kts | 102° |
| 2026-04-15 06:28 | -27.41970 | 151.73051 | 2080 ft | 109 kts | 99° |
| 2026-04-15 06:28 | -27.42103 | 151.73906 | 2115 ft | 111 kts | 98° |
| 2026-04-15 06:28 | -27.42077 | 151.74723 | 2185 ft | 98 kts | 47° |
| 2026-04-15 06:29 | -27.41292 | 151.74720 | 1967 ft | 101 kts | 300° |
| 2026-04-15 06:29 | -27.41158 | 151.74214 | 1749 ft | 101 kts | 275° |
| 2026-04-15 06:29 | -27.41045 | 151.73399 | 1410 ft | 44 kts | 285° |
| 2026-04-15 06:29 | -27.41019 | 151.73213 | 1375 ft | 8 kts | 280° |
| 2026-04-15 06:30 | -27.41018 | 151.73210 | 1374 ft | 2 kts | 284° |
| 2026-04-15 06:30 | -27.41005 | 151.73134 | 1436 ft | 34 kts | 283° |
| 2026-04-15 06:30 | -27.40930 | 151.72657 | 1523 ft | 74 kts | 280° |
| 2026-04-15 06:30 | -27.40834 | 151.72049 | 1697 ft | 79 kts | 279° |
| 2026-04-15 06:31 | -27.41045 | 151.71574 | 1899 ft | 81 kts | 191° |
| 2026-04-15 06:31 | -27.41584 | 151.71814 | 2008 ft | 91 kts | 134° |
| 2026-04-15 06:31 | -27.41888 | 151.72498 | 1986 ft | 107 kts | 104° |
| 2026-04-15 06:31 | -27.42027 | 151.73345 | 1983 ft | 112 kts | 99° |
| 2026-04-15 06:32 | -27.42153 | 151.74212 | 2029 ft | 111 kts | 97° |
| 2026-04-15 06:32 | -27.41915 | 151.74907 | 2172 ft | 100 kts | 15° |
| 2026-04-15 06:32 | -27.41272 | 151.74744 | 2022 ft | 105 kts | 293° |
| 2026-04-15 06:32 | -27.41123 | 151.73909 | 1636 ft | 112 kts | 278° |
| 2026-04-15 06:33 | -27.41033 | 151.73353 | 1449 ft | 37 kts | 270° |
| 2026-04-15 06:33 | -27.41012 | 151.73185 | 1377 ft | 12 kts | 275° |
| 2026-04-15 06:33 | -27.41009 | 151.73159 | 1370 ft | 4 kts | 285° |
| 2026-04-15 06:33 | -27.40954 | 151.72822 | 1417 ft | 76 kts | 281° |
| 2026-04-15 06:34 | -27.40856 | 151.72236 | 1647 ft | 76 kts | 280° |
| 2026-04-15 06:34 | -27.40772 | 151.71680 | 1930 ft | 68 kts | 276° |
| 2026-04-15 06:34 | -27.41084 | 151.71308 | 2075 ft | 83 kts | 186° |
| 2026-04-15 06:34 | -27.41665 | 151.71557 | 2102 ft | 99 kts | 125° |
| 2026-04-15 06:35 | -27.41873 | 151.72346 | 2067 ft | 109 kts | 97° |
| 2026-04-15 06:35 | -27.41993 | 151.73199 | 2104 ft | 110 kts | 94° |
| 2026-04-15 06:35 | -27.42113 | 151.74056 | 2120 ft | 113 kts | 99° |
| 2026-04-15 06:35 | -27.41865 | 151.74812 | 2223 ft | 105 kts | 21° |
| 2026-04-15 06:36 | -27.41234 | 151.74598 | 2018 ft | 109 kts | 287° |
| 2026-04-15 06:36 | -27.41093 | 151.73754 | 1567 ft | 96 kts | 283° |
| 2026-04-15 06:36 | -27.41007 | 151.73176 | 1390 ft | 52 kts | 285° |
| 2026-04-15 06:36 | -27.40981 | 151.72966 | 1355 ft | 9 kts | 285° |
| 2026-04-15 06:37 | -27.40982 | 151.72954 | 1346 ft | 2 kts | 285° |
| 2026-04-15 06:37 | -27.40982 | 151.72947 | 1351 ft | 2 kts | 283° |
| 2026-04-15 06:37 | -27.40973 | 151.72902 | 1425 ft | 13 kts | 284° |
| 2026-04-15 06:37 | -27.40916 | 151.72558 | 1544 ft | 66 kts | 280° |
| 2026-04-15 06:38 | -27.40831 | 151.72001 | 1717 ft | 76 kts | 279° |
| 2026-04-15 06:38 | -27.40410 | 151.71674 | 1784 ft | 94 kts | 9° |
| 2026-04-15 06:38 | -27.39745 | 151.71838 | 1861 ft | 100 kts | 9° |
| 2026-04-15 06:38 | -27.39056 | 151.71955 | 1968 ft | 100 kts | 6° |
| 2026-04-15 06:39 | -27.38344 | 151.72083 | 2015 ft | 104 kts | 7° |
| 2026-04-15 06:39 | -27.37600 | 151.72222 | 2014 ft | 110 kts | 8° |
| 2026-04-15 06:39 | -27.36838 | 151.72367 | 2018 ft | 112 kts | 9° |
| 2026-04-15 06:39 | -27.36078 | 151.72513 | 2086 ft | 109 kts | 10° |
| 2026-04-15 06:40 | -27.35336 | 151.72653 | 2152 ft | 107 kts | 9° |
| 2026-04-15 06:40 | -27.34598 | 151.72781 | 2232 ft | 105 kts | 17° |
| 2026-04-15 06:40 | -27.34271 | 151.73447 | 2201 ft | 111 kts | 98° |
| 2026-04-15 06:40 | -27.34401 | 151.74326 | 2165 ft | 116 kts | 102° |
| 2026-04-15 06:41 | -27.34556 | 151.75220 | 2160 ft | 117 kts | 103° |
| 2026-04-15 06:41 | -27.34740 | 151.76111 | 2163 ft | 117 kts | 106° |
| 2026-04-15 06:41 | -27.35419 | 151.76438 | 2097 ft | 120 kts | 187° |
| 2026-04-15 06:41 | -27.36237 | 151.76311 | 2114 ft | 115 kts | 191° |
| 2026-04-15 06:42 | -27.37017 | 151.76157 | 2171 ft | 110 kts | 189° |
| 2026-04-15 06:42 | -27.37758 | 151.76045 | 2244 ft | 107 kts | 187° |
| 2026-04-15 06:42 | -27.38499 | 151.75957 | 2301 ft | 107 kts | 185° |
| 2026-04-15 06:42 | -27.39228 | 151.75869 | 2392 ft | 104 kts | 185° |
| 2026-04-15 06:43 | -27.39731 | 151.76221 | 2355 ft | 86 kts | 66° |
| 2026-04-15 06:43 | -27.39242 | 151.76199 | 2193 ft | 99 kts | 290° |
| 2026-04-15 06:43 | -27.39304 | 151.75343 | 1958 ft | 122 kts | 250° |
| 2026-04-15 06:43 | -27.39737 | 151.74473 | 1661 ft | 127 kts | 240° |
| 2026-04-15 06:44 | -27.40079 | 151.73922 | 1449 ft | 52 kts | 233° |
| 2026-04-15 06:44 | -27.40202 | 151.73734 | 1367 ft | 13 kts | 236° |
| 2026-04-15 06:44 | -27.40211 | 151.73727 | 1358 ft | 1 kts | 238° |
| 2026-04-15 06:44 | -27.40221 | 151.73704 | 1354 ft | 2 kts | 250° |
| 2026-04-15 06:45 | -27.40228 | 151.73689 | 1348 ft | 1 kts | 239° |
| 2026-04-15 06:45 | -27.40229 | 151.73689 | 1347 ft | 0 kts | 239° |
| 2026-04-15 06:46 | -27.40236 | 151.73680 | 1368 ft | 2 kts | 235° |
| 2026-04-15 06:47 | -27.40293 | 151.73589 | 1428 ft | 44 kts | 235° |
| 2026-04-15 06:47 | -27.40573 | 151.73136 | 1443 ft | 85 kts | 236° |
| 2026-04-15 06:47 | -27.40896 | 151.72625 | 1698 ft | 78 kts | 241° |
| 2026-04-15 06:47 | -27.41366 | 151.72255 | 1781 ft | 92 kts | 186° |
| 2026-04-15 06:48 | -27.41898 | 151.72617 | 1792 ft | 103 kts | 106° |
| 2026-04-15 06:48 | -27.42047 | 151.73425 | 1812 ft | 107 kts | 99° |
| 2026-04-15 06:48 | -27.42161 | 151.74223 | 1988 ft | 98 kts | 98° |
| 2026-04-15 06:48 | -27.42080 | 151.74965 | 2097 ft | 97 kts | 38° |
| 2026-04-15 06:49 | -27.41455 | 151.75015 | 2092 ft | 104 kts | 323° |
| 2026-04-15 06:49 | -27.41180 | 151.74282 | 1710 ft | 104 kts | 282° |
| 2026-04-15 06:49 | -27.41088 | 151.73654 | 1414 ft | 57 kts | 285° |
| 2026-04-15 06:50 | -27.41040 | 151.73348 | 1351 ft | 6 kts | 276° |
| 2026-04-15 06:50 | -27.41033 | 151.73331 | 1352 ft | 11 kts | 106° |
| 2026-04-15 06:50 | -27.41044 | 151.73408 | 1364 ft | 10 kts | 105° |
| 2026-04-15 06:50 | -27.41061 | 151.73481 | 1372 ft | 13 kts | 148° |
| 2026-04-15 06:51 | -27.41225 | 151.73461 | 1369 ft | 31 kts | 190° |
| 2026-04-15 06:51 | -27.41351 | 151.73441 | 1351 ft | 1 kts | 201° |
| 2026-04-15 06:51 | -27.41379 | 151.73457 | 1351 ft | 10 kts | 124° |
| 2026-04-15 06:51 | -27.41394 | 151.73500 | 1354 ft | 6 kts | 22° |
| 2026-04-15 06:52 | -27.41386 | 151.73510 | 1347 ft | 2 kts | 20° |
| 2026-04-15 06:52 | -27.41383 | 151.73510 | 1346 ft | 0 kts | 6° |